createdAt,value
2018-02-21T00:02:26.076Z,14.03
2018-02-21T00:04:53.619Z,15.57
2018-02-21T00:07:21.224Z,15.07
2018-02-21T00:09:48.776Z,14.73
2018-02-21T00:12:16.379Z,15.07
2018-02-21T00:14:43.963Z,14.50
2018-02-21T00:17:11.516Z,14.77
2018-02-21T00:19:39.339Z,14.33
2018-02-21T00:22:06.888Z,14.23
2018-02-21T00:24:34.431Z,14.73
2018-02-21T00:27:02.009Z,14.83
2018-02-21T00:29:29.555Z,15.23
2018-02-21T00:31:57.130Z,15.27
2018-02-21T00:34:24.895Z,15.30
2018-02-21T00:36:52.434Z,14.40
2018-02-21T00:39:19.967Z,15.03
2018-02-21T00:41:47.954Z,15.47
2018-02-21T00:44:15.504Z,15.20
2018-02-21T00:46:43.092Z,17.00
2018-02-21T00:49:10.927Z,14.70
2018-02-21T00:51:38.740Z,15.20
2018-02-21T00:54:06.331Z,14.57
2018-02-21T00:56:33.867Z,16.13
2018-02-21T00:59:01.468Z,14.90
2018-02-21T01:01:29.010Z,14.53
2018-02-21T01:03:57.154Z,16.50
2018-02-21T01:06:24.744Z,15.47
2018-02-21T01:08:52.289Z,15.63
2018-02-21T01:11:20.141Z,15.93
2018-02-21T01:13:47.687Z,15.27
2018-02-21T01:16:15.272Z,14.70
2018-02-21T01:18:42.823Z,14.60
2018-02-21T01:21:10.409Z,14.13
2018-02-21T01:23:37.957Z,14.80
2018-02-21T01:26:06.111Z,14.63
2018-02-21T01:28:33.696Z,13.90
2018-02-21T01:31:01.299Z,13.53
2018-02-21T01:33:28.834Z,13.53
2018-02-21T01:35:56.375Z,14.40
2018-02-21T01:38:23.967Z,14.30
2018-02-21T01:40:51.542Z,13.57
2018-02-21T01:43:19.092Z,15.33
2018-02-21T01:45:46.992Z,15.30
2018-02-21T01:48:14.533Z,14.33
2018-02-21T01:50:53.015Z,14.13
2018-02-21T01:53:20.600Z,13.23
2018-02-21T01:55:48.190Z,13.83
2018-02-21T01:58:15.776Z,13.30
2018-02-21T02:00:43.370Z,14.40
2018-02-21T02:03:10.908Z,12.90
2018-02-21T02:05:38.455Z,13.70
2018-02-21T02:08:06.034Z,13.10
2018-02-21T02:10:33.581Z,14.30
2018-02-21T02:13:01.620Z,14.40
2018-02-21T02:15:30.159Z,12.77
2018-02-21T02:17:57.772Z,13.30
2018-02-21T02:20:25.324Z,14.17
2018-02-21T02:22:52.871Z,13.97
2018-02-21T02:25:20.454Z,13.87
2018-02-21T02:27:48.396Z,14.50
2018-02-21T02:30:15.996Z,13.23
2018-02-21T02:32:43.544Z,13.40
2018-02-21T02:35:11.898Z,13.10
2018-02-21T02:37:39.759Z,12.93
2018-02-21T02:40:07.309Z,13.53
2018-02-21T02:42:34.860Z,13.60
2018-02-21T02:45:02.613Z,13.53
2018-02-21T02:47:30.207Z,12.90
2018-02-21T02:49:57.761Z,13.80
2018-02-21T02:52:25.364Z,14.13
2018-02-21T02:54:52.902Z,13.00
2018-02-21T02:57:20.885Z,14.10
2018-02-21T02:59:48.461Z,13.27
2018-02-21T03:02:16.289Z,13.80
2018-02-21T03:04:43.987Z,13.77
2018-02-21T03:07:11.530Z,14.87
2018-02-21T03:09:39.107Z,13.30
2018-02-21T03:12:06.927Z,14.77
2018-02-21T03:14:34.522Z,12.80
2018-02-21T03:17:02.072Z,12.53
2018-02-21T03:19:30.108Z,13.97
2018-02-21T03:21:57.925Z,13.43
2018-02-21T03:24:25.905Z,12.73
2018-02-21T03:26:53.933Z,14.07
2018-02-21T03:29:22.499Z,14.03
2018-02-21T03:31:50.381Z,15.00
2018-02-21T03:34:17.973Z,14.50
2018-02-21T03:36:45.596Z,13.73
2018-02-21T03:39:13.189Z,13.77
2018-02-21T03:41:40.731Z,13.40
2018-02-21T03:44:08.323Z,14.77
2018-02-21T03:46:35.861Z,14.27
2018-02-21T03:49:03.407Z,12.93
2018-02-21T03:51:31.015Z,14.70
2018-02-21T03:53:58.564Z,13.43
2018-02-21T03:56:26.106Z,14.27
2018-02-21T03:58:53.695Z,15.10
2018-02-21T04:01:21.242Z,13.50
2018-02-21T04:03:48.791Z,14.00
2018-02-21T04:06:16.370Z,13.07
2018-02-21T04:08:43.952Z,14.43
2018-02-21T04:11:11.489Z,13.37
2018-02-21T04:13:39.047Z,14.80
2018-02-21T04:16:06.639Z,13.30
2018-02-21T04:18:34.231Z,13.70
2018-02-21T04:21:01.767Z,13.13
2018-02-21T04:23:29.364Z,14.20
2018-02-21T04:25:56.910Z,13.53
2018-02-21T04:28:24.495Z,14.23
2018-02-21T04:30:52.036Z,13.50
2018-02-21T04:33:19.626Z,13.27
2018-02-21T04:35:47.172Z,13.20
2018-02-21T04:38:14.749Z,13.70
2018-02-21T04:40:42.359Z,13.60
2018-02-21T04:43:10.078Z,13.90
2018-02-21T04:45:37.661Z,14.07
2018-02-21T04:48:05.610Z,13.37
2018-02-21T04:50:33.215Z,14.10
2018-02-21T04:53:00.780Z,12.87
2018-02-21T04:55:31.858Z,13.20
2018-02-21T04:58:05.052Z,12.63
2018-02-21T05:00:32.621Z,13.00
2018-02-21T05:03:01.348Z,12.43
2018-02-21T05:05:28.900Z,13.37
2018-02-21T05:07:56.488Z,13.07
2018-02-21T05:10:24.034Z,13.17
2018-02-21T05:12:51.755Z,13.80
2018-02-21T05:15:19.356Z,13.03
2018-02-21T05:17:47.859Z,13.23
2018-02-21T05:20:15.441Z,14.00
2018-02-21T05:22:43.022Z,12.97
2018-02-21T05:25:10.798Z,13.57
2018-02-21T05:27:38.394Z,12.70
2018-02-21T05:30:06.133Z,14.23
2018-02-21T05:32:33.684Z,13.83
2018-02-21T05:35:01.263Z,13.98
2018-02-21T05:37:28.793Z,14.00
2018-02-21T05:39:56.385Z,12.67
2018-02-21T05:42:24.226Z,13.57
2018-02-21T05:44:51.771Z,13.60
2018-02-21T05:47:19.342Z,14.20
2018-02-21T05:49:47.775Z,13.90
2018-02-21T05:52:15.354Z,13.37
2018-02-21T05:54:43.698Z,14.90
2018-02-21T05:57:11.280Z,13.48
2018-02-21T05:59:38.940Z,13.50
2018-02-21T06:02:06.500Z,13.83
2018-02-21T06:04:34.056Z,15.63
2018-02-21T06:07:01.654Z,14.03
2018-02-21T06:09:29.200Z,14.30
2018-02-21T06:11:56.797Z,14.60
2018-02-21T06:14:24.359Z,14.57
2018-02-21T06:16:51.923Z,13.53
2018-02-21T06:19:20.344Z,13.60
2018-02-21T06:21:47.895Z,15.00
2018-02-21T06:24:15.451Z,16.07
2018-02-21T06:26:43.116Z,14.50
2018-02-21T06:29:10.712Z,15.90
2018-02-21T06:31:38.250Z,16.52
2018-02-21T06:34:05.864Z,14.63
2018-02-21T06:36:33.528Z,15.27
2018-02-21T06:39:01.091Z,15.50
2018-02-21T06:41:28.737Z,18.23
2018-02-21T06:43:56.734Z,15.67
2018-02-21T06:46:24.311Z,17.73
2018-02-21T06:48:51.868Z,17.87
2018-02-21T06:51:19.559Z,16.07
2018-02-21T06:53:47.115Z,16.47
2018-02-21T06:56:14.676Z,17.20
2018-02-21T06:58:43.070Z,16.70
2018-02-21T07:01:10.710Z,17.27
2018-02-21T07:03:38.325Z,18.37
2018-02-21T07:06:05.920Z,19.60
2018-02-21T07:08:33.474Z,19.85
2018-02-21T07:11:01.084Z,17.73
2018-02-21T07:13:28.676Z,17.73
2018-02-21T07:15:57.147Z,18.67
2018-02-21T07:18:24.695Z,18.23
2018-02-21T07:20:52.291Z,19.60
2018-02-21T07:23:19.950Z,18.97
2018-02-21T07:25:47.572Z,18.73
2018-02-21T07:28:15.170Z,19.85
2018-02-21T07:30:42.756Z,20.30
2018-02-21T07:33:10.358Z,20.62
2018-02-21T07:35:38.012Z,20.75
2018-02-21T07:38:05.582Z,19.85
2018-02-21T07:40:33.599Z,20.27
2018-02-21T07:43:01.201Z,19.87
2018-02-21T07:45:29.080Z,20.67
2018-02-21T07:47:56.952Z,18.73
2018-02-21T07:50:24.987Z,17.83
2018-02-21T07:52:52.552Z,20.42
2018-02-21T07:55:20.140Z,20.12
2018-02-21T07:57:48.618Z,20.62
2018-02-21T08:00:16.178Z,19.47
2018-02-21T08:02:43.783Z,18.57
2018-02-21T08:05:11.755Z,17.67
2018-02-21T08:07:39.317Z,17.53
2018-02-21T08:10:06.911Z,17.83
2018-02-21T08:12:34.494Z,18.93
2018-02-21T08:15:02.047Z,16.87
2018-02-21T08:17:29.636Z,17.13
2018-02-21T08:19:57.244Z,16.03
2018-02-21T08:22:24.907Z,16.40
2018-02-21T08:24:52.449Z,17.30
2018-02-21T08:27:20.057Z,15.97
2018-02-21T08:29:47.656Z,18.60
2018-02-21T08:32:15.753Z,18.30
2018-02-21T08:34:43.376Z,18.70
2018-02-21T08:37:11.085Z,17.37
2018-02-21T08:39:39.527Z,16.63
2018-02-21T08:42:07.124Z,17.57
2018-02-21T08:44:34.783Z,17.23
2018-02-21T08:47:03.618Z,17.33
2018-02-21T08:49:31.175Z,18.13
2018-02-21T08:51:58.718Z,20.10
2018-02-21T08:54:26.396Z,18.62
2018-02-21T08:56:53.961Z,19.77
2018-02-21T08:59:21.535Z,19.85
2018-02-21T09:01:49.138Z,20.08
2018-02-21T09:04:16.725Z,18.52
2018-02-21T09:06:44.277Z,19.15
2018-02-21T09:09:11.828Z,17.83
2018-02-21T09:11:39.422Z,17.37
2018-02-21T09:14:06.984Z,18.03
2018-02-21T09:16:34.633Z,17.10
2018-02-21T09:19:02.156Z,17.37
2018-02-21T09:21:30.571Z,18.77
2018-02-21T09:23:58.160Z,19.17
2018-02-21T09:26:25.766Z,18.45
2018-02-21T09:28:53.423Z,17.45
2018-02-21T09:31:21.036Z,15.80
2018-02-21T09:33:48.620Z,15.38
2018-02-21T09:36:17.176Z,14.23
2018-02-21T09:38:44.789Z,14.97
2018-02-21T09:41:13.254Z,14.67
2018-02-21T09:43:40.866Z,16.23
2018-02-21T09:46:08.844Z,15.83
2018-02-21T09:48:37.324Z,17.20
2018-02-21T09:51:04.890Z,15.10
2018-02-21T09:53:32.435Z,16.40
2018-02-21T09:56:00.019Z,17.05
2018-02-21T09:58:27.579Z,17.15
2018-02-21T10:00:55.330Z,15.93
2018-02-21T10:03:23.996Z,15.43
2018-02-21T10:05:51.592Z,15.30
2018-02-21T10:08:19.167Z,14.10
2018-02-21T10:10:47.131Z,14.20
2018-02-21T10:13:14.715Z,15.30
2018-02-21T10:15:43.240Z,14.67
2018-02-21T10:18:10.838Z,15.70
2018-02-21T10:20:39.227Z,12.83
2018-02-21T10:23:06.783Z,13.60
2018-02-21T10:25:34.376Z,14.63
2018-02-21T10:28:02.367Z,13.70
2018-02-21T10:30:30.172Z,13.57
2018-02-21T10:32:58.763Z,13.17
2018-02-21T10:35:26.842Z,14.52
2018-02-21T10:37:54.645Z,14.30
2018-02-21T10:40:23.127Z,13.30
2018-02-21T10:42:50.976Z,13.73
2018-02-21T10:45:19.357Z,14.07
2018-02-21T10:47:46.973Z,15.27
2018-02-21T10:50:14.579Z,16.10
2018-02-21T10:52:42.168Z,14.40
2018-02-21T10:55:09.762Z,15.15
2018-02-21T10:57:38.137Z,15.23
2018-02-21T11:00:05.727Z,15.17
2018-02-21T11:02:33.270Z,17.20
2018-02-21T11:05:00.824Z,16.70
2018-02-21T11:07:29.249Z,14.47
2018-02-21T11:09:57.099Z,17.98
2018-02-21T11:12:24.707Z,18.05
2018-02-21T11:14:52.305Z,15.97
2018-02-21T11:17:19.891Z,17.35
2018-02-21T11:19:48.070Z,17.13
2018-02-21T11:22:15.621Z,16.73
2018-02-21T11:24:43.886Z,17.50
2018-02-21T11:27:11.542Z,16.53
2018-02-21T11:29:39.152Z,15.70
2018-02-21T11:32:06.697Z,14.17
2018-02-21T11:34:34.295Z,17.35
2018-02-21T11:37:02.060Z,16.45
2018-02-21T11:39:29.728Z,15.95
2018-02-21T11:41:57.340Z,16.03
2018-02-21T11:44:25.834Z,16.40
2018-02-21T11:46:54.020Z,16.02
2018-02-21T11:49:21.591Z,16.12
2018-02-21T11:51:49.191Z,14.53
2018-02-21T11:54:16.790Z,15.70
2018-02-21T11:56:44.388Z,14.83
2018-02-21T11:59:12.043Z,16.40
2018-02-21T12:01:39.951Z,16.52
2018-02-21T12:04:08.715Z,16.58
2018-02-21T12:06:36.261Z,14.73
2018-02-21T12:09:03.934Z,16.40
2018-02-21T12:11:31.735Z,14.70
2018-02-21T12:13:59.340Z,15.60
2018-02-21T12:16:26.897Z,15.13
2018-02-21T12:18:55.347Z,13.77
2018-02-21T12:21:22.951Z,15.50
2018-02-21T12:23:51.542Z,14.07
2018-02-21T12:26:19.453Z,15.03
2018-02-21T12:28:47.183Z,17.63
2018-02-21T12:31:15.593Z,14.43
2018-02-21T12:33:43.470Z,15.20
2018-02-21T12:36:15.517Z,15.17
2018-02-21T12:38:43.196Z,14.77
2018-02-21T12:41:17.346Z,16.70
2018-02-21T12:43:46.850Z,15.37
2018-02-21T12:46:14.480Z,17.90
2018-02-21T12:48:42.106Z,16.40
2018-02-21T12:51:09.694Z,16.87
2018-02-21T12:53:37.622Z,16.33
2018-02-21T12:56:05.683Z,19.67
2018-02-21T12:58:33.281Z,19.70
2018-02-21T13:01:00.831Z,17.10
2018-02-21T13:03:28.593Z,17.97
2018-02-21T13:05:56.275Z,20.13
2018-02-21T13:08:24.688Z,18.50
2018-02-21T13:10:53.467Z,19.57
2018-02-21T13:13:22.026Z,19.57
2018-02-21T13:15:49.576Z,21.03
2018-02-21T13:18:17.189Z,22.07
2018-02-21T13:20:44.800Z,21.87
2018-02-21T13:23:12.570Z,24.00
2018-02-21T13:25:40.324Z,23.90
2018-02-21T13:28:07.914Z,22.67
2018-02-21T13:30:35.526Z,23.00
2018-02-21T13:35:05.914Z,27.20
2018-02-21T13:37:33.502Z,25.20
2018-02-21T13:40:01.426Z,23.47
2018-02-21T13:42:29.075Z,22.80
2018-02-21T13:44:56.688Z,26.45
2018-02-21T13:47:24.348Z,26.17
2018-02-21T13:49:52.940Z,23.67
2018-02-21T13:52:21.016Z,24.00
2018-02-21T13:54:48.661Z,26.58
2018-02-21T13:57:16.396Z,25.48
2018-02-21T13:59:43.995Z,24.67
2018-02-21T14:02:11.540Z,24.50
2018-02-21T14:04:39.195Z,23.23
2018-02-21T14:07:07.395Z,26.37
2018-02-21T14:09:34.973Z,25.00
2018-02-21T14:12:02.565Z,24.20
2018-02-21T14:14:31.129Z,24.93
2018-02-21T14:16:59.482Z,27.30
2018-02-21T14:19:27.075Z,25.20
2018-02-21T14:21:54.679Z,25.77
2018-02-21T14:24:22.233Z,26.15
2018-02-21T14:26:50.582Z,25.73
2018-02-21T14:29:19.118Z,31.62
2018-02-21T14:31:50.730Z,27.70
2018-02-21T14:34:18.303Z,30.37
2018-02-21T14:36:45.887Z,27.13
2018-02-21T14:39:13.439Z,25.77
2018-02-21T14:41:41.370Z,30.62
2018-02-21T14:44:09.214Z,26.77
2018-02-21T14:46:37.166Z,27.33
2018-02-21T14:49:04.764Z,28.00
2018-02-21T14:51:33.065Z,25.47
2018-02-21T14:54:00.995Z,27.03
2018-02-21T14:56:28.535Z,27.20
2018-02-21T14:58:56.940Z,30.12
2018-02-21T15:01:25.035Z,27.30
2018-02-21T15:03:53.514Z,29.33
2018-02-21T15:06:21.691Z,29.00
2018-02-21T15:08:49.970Z,29.37
2018-02-21T15:11:17.572Z,29.60
2018-02-21T15:13:45.520Z,27.77
2018-02-21T15:16:19.178Z,29.67
2018-02-21T15:18:47.940Z,28.30
2018-02-21T15:21:15.641Z,28.37
2018-02-21T15:23:43.195Z,29.20
2018-02-21T15:26:11.280Z,29.27
2018-02-21T15:28:38.836Z,29.00
2018-02-21T15:31:06.465Z,30.40
2018-02-21T15:33:34.318Z,28.97
2018-02-21T15:36:01.876Z,31.97
2018-02-21T15:38:29.785Z,28.33
2018-02-21T15:40:57.362Z,28.90
2018-02-21T15:43:24.995Z,32.50
2018-02-21T15:45:52.619Z,31.52
2018-02-21T15:48:20.192Z,28.33
2018-02-21T15:50:48.591Z,30.70
2018-02-21T15:53:16.187Z,29.33
2018-02-21T15:55:43.779Z,31.40
2018-02-21T15:58:11.332Z,29.30
2018-02-21T16:03:13.628Z,28.87
2018-02-21T16:05:43.936Z,30.33
2018-02-21T16:08:11.910Z,28.33
2018-02-21T16:10:40.243Z,29.43
2018-02-21T16:13:10.715Z,30.50
2018-02-21T16:15:38.708Z,28.37
2018-02-21T16:18:07.526Z,29.60
2018-02-21T16:20:35.079Z,28.90
2018-02-21T16:23:05.936Z,28.67
2018-02-21T16:25:33.600Z,28.93
2018-02-21T16:28:02.639Z,28.47
2018-02-21T16:30:30.260Z,28.70
2018-02-21T16:32:58.379Z,31.87
2018-02-21T16:35:26.367Z,28.37
2018-02-21T16:37:54.223Z,29.30
2018-02-21T16:40:22.753Z,30.23
2018-02-21T16:42:53.522Z,30.27
2018-02-21T16:45:21.240Z,27.30
2018-02-21T16:47:48.831Z,29.53
2018-02-21T16:50:17.831Z,28.33
2018-02-21T16:52:47.179Z,29.60
2018-02-21T16:55:15.768Z,29.20
2018-02-21T16:57:43.311Z,30.07
2018-02-21T17:00:11.818Z,30.13
2018-02-21T17:02:39.580Z,29.73
2018-02-21T17:05:07.952Z,30.67
2018-02-21T17:07:35.912Z,30.93
2018-02-21T17:10:03.813Z,28.50
2018-02-21T17:12:31.357Z,30.73
2018-02-21T17:14:58.966Z,32.37
2018-02-21T17:17:26.510Z,31.83
2018-02-21T17:19:55.923Z,31.73
2018-02-21T17:22:24.602Z,29.57
2018-02-21T17:24:52.172Z,35.58
2018-02-21T17:27:19.770Z,30.60
2018-02-21T17:29:47.311Z,34.33
2018-02-21T17:32:14.878Z,30.73
2018-02-21T17:34:42.418Z,30.17
2018-02-21T17:37:10.774Z,30.17
2018-02-21T17:39:38.403Z,28.83
2018-02-21T17:42:06.402Z,30.17
2018-02-21T17:44:33.949Z,29.17
2018-02-21T17:47:03.012Z,28.77
2018-02-21T17:49:31.436Z,30.20
2018-02-21T17:52:00.605Z,27.43
2018-02-21T17:54:28.463Z,27.70
2018-02-21T17:56:56.649Z,28.67
2018-02-21T17:59:25.208Z,27.37
2018-02-21T18:01:53.176Z,27.90
2018-02-21T18:04:20.759Z,29.83
2018-02-21T18:06:48.311Z,27.20
2018-02-21T18:09:16.388Z,29.47
2018-02-21T18:11:46.193Z,31.27
2018-02-21T18:14:14.731Z,27.77
2018-02-21T18:16:42.290Z,29.30
2018-02-21T18:19:09.887Z,28.60
2018-02-21T18:21:43.701Z,29.70
2018-02-21T18:33:36.946Z,30.33
2018-02-21T18:36:06.344Z,30.93
2018-02-21T18:38:33.954Z,31.17
2018-02-21T18:41:02.165Z,30.07
2018-02-21T18:43:30.862Z,30.77
2018-02-21T18:45:58.410Z,30.97
2018-02-21T18:48:26.468Z,30.30
2018-02-21T18:50:54.030Z,30.57
2018-02-21T18:53:21.871Z,29.63
2018-02-21T18:55:51.478Z,30.07
2018-02-21T18:58:19.741Z,32.43
2018-02-21T19:00:47.833Z,29.37
2018-02-21T19:03:16.386Z,29.43
2018-02-21T19:05:43.997Z,30.10
2018-02-21T19:08:12.942Z,32.97
2018-02-21T19:10:41.020Z,36.47
2018-02-21T19:13:09.348Z,32.03
2018-02-21T19:15:37.527Z,33.23
2018-02-21T19:18:06.092Z,30.27
2018-02-21T19:20:33.881Z,39.00
2018-02-21T19:23:01.427Z,36.23
2018-02-21T19:25:47.411Z,34.30
2018-02-21T19:28:15.013Z,33.50
2018-02-21T19:30:42.834Z,33.13
2018-02-21T19:33:11.398Z,34.35
2018-02-21T19:35:38.960Z,34.20
2018-02-21T19:38:07.143Z,34.60
2018-02-21T19:40:35.638Z,33.50
2018-02-21T19:43:03.495Z,32.33
2018-02-21T19:45:31.083Z,33.00
2018-02-21T19:47:58.670Z,33.13
2018-02-21T19:50:26.272Z,33.03
2018-02-21T19:52:53.815Z,34.30
2018-02-21T19:55:23.358Z,33.93
2018-02-21T19:57:51.260Z,34.37
2018-02-21T20:00:18.891Z,33.50
2018-02-21T20:02:47.777Z,30.43
2018-02-21T20:05:15.369Z,30.87
2018-02-21T20:07:42.993Z,32.47
2018-02-21T20:10:10.552Z,30.20
2018-02-21T20:12:38.414Z,32.90
2018-02-21T20:15:06.020Z,33.33
2018-02-21T20:17:34.080Z,30.87
2018-02-21T20:20:02.513Z,31.07
2018-02-21T20:22:30.259Z,32.00
2018-02-21T20:24:59.163Z,30.97
2018-02-21T20:27:26.718Z,31.90
2018-02-21T20:29:54.691Z,37.13
2018-02-21T20:32:22.632Z,31.30
2018-02-21T20:34:50.978Z,30.43
2018-02-21T20:37:19.070Z,31.73
2018-02-21T20:39:47.073Z,31.17
2018-02-21T20:42:15.462Z,31.53
2018-02-21T20:44:43.507Z,30.20
2018-02-21T20:47:11.162Z,32.00
2018-02-21T20:49:38.968Z,33.07
2018-02-21T20:52:06.501Z,31.20
2018-02-21T20:54:34.079Z,33.37
2018-02-21T20:57:01.939Z,30.37
2018-02-21T20:59:29.500Z,29.48
2018-02-21T21:01:57.471Z,29.77
2018-02-21T21:04:25.058Z,29.93
2018-02-21T21:06:52.655Z,27.83
2018-02-21T21:09:20.255Z,30.40
2018-02-21T21:11:47.804Z,30.03
2018-02-21T21:14:15.396Z,27.47
2018-02-21T21:16:42.934Z,28.03
2018-02-21T21:19:10.514Z,30.50
2018-02-21T21:21:39.465Z,29.77
2018-02-21T21:24:07.068Z,28.97
2018-02-21T21:26:34.662Z,27.97
2018-02-21T21:29:02.216Z,27.57
2018-02-21T21:31:29.768Z,33.07
2018-02-21T21:33:58.096Z,30.87
2018-02-21T21:36:26.292Z,27.77
2018-02-21T21:38:53.884Z,28.27
2018-02-21T21:41:21.431Z,33.10
2018-02-21T21:43:49.037Z,27.93
2018-02-21T21:46:16.628Z,26.97
2018-02-21T21:48:44.171Z,27.33
2018-02-21T21:51:11.758Z,26.43
2018-02-21T21:53:39.523Z,27.20
2018-02-21T21:56:07.119Z,27.40
2018-02-21T21:58:34.716Z,26.83
2018-02-21T22:01:02.674Z,26.47
2018-02-21T22:03:30.264Z,26.80
2018-02-21T22:05:57.846Z,24.80
2018-02-21T22:08:25.390Z,24.70
2018-02-21T22:10:53.954Z,24.77
2018-02-21T22:13:22.135Z,24.73
2018-02-21T22:15:50.983Z,23.50
2018-02-21T22:18:18.569Z,23.83
2018-02-21T22:20:46.168Z,22.30
2018-02-21T22:23:13.726Z,20.80
2018-02-21T22:25:41.275Z,22.13
2018-02-21T22:28:09.032Z,22.67
2018-02-21T22:30:37.051Z,23.43
2018-02-21T22:33:04.670Z,23.63
2018-02-21T22:35:32.487Z,22.03
2018-02-21T22:38:01.532Z,21.83
2018-02-21T22:40:29.104Z,22.47
2018-02-21T22:42:56.885Z,22.80
2018-02-21T22:45:24.480Z,22.67
2018-02-21T22:47:52.023Z,20.70
2018-02-21T22:50:20.004Z,22.57
2018-02-21T22:52:47.964Z,21.70
2018-02-21T22:55:15.520Z,21.70
2018-02-21T22:57:43.058Z,21.87
2018-02-21T23:00:10.647Z,21.20
2018-02-21T23:02:38.666Z,21.97
2018-02-21T23:05:06.216Z,21.80
2018-02-21T23:07:33.772Z,22.43
2018-02-21T23:10:01.643Z,20.03
2018-02-21T23:12:29.412Z,21.27
2018-02-21T23:14:56.949Z,21.00
2018-02-21T23:17:24.527Z,20.57
2018-02-21T23:19:52.076Z,21.93
2018-02-21T23:22:19.755Z,20.40
2018-02-21T23:24:47.672Z,19.07
2018-02-21T23:27:15.217Z,19.23
2018-02-21T23:29:42.791Z,19.40
2018-02-21T23:32:10.362Z,20.20
2018-02-21T23:34:37.908Z,20.47
2018-02-21T23:37:05.487Z,19.67
2018-02-21T23:39:33.073Z,20.10
2018-02-21T23:42:00.653Z,19.53
2018-02-21T23:44:28.302Z,18.90
2018-02-21T23:46:56.012Z,19.13
2018-02-21T23:49:23.550Z,18.80
2018-02-21T23:51:51.140Z,18.57
2018-02-21T23:54:19.258Z,17.73
2018-02-21T23:56:46.794Z,19.57
2018-02-21T23:59:14.373Z,17.87
